sensor_id;sensor_type;location;lat;lon;timestamp;temperature;humidity
16635;DHT22;8431;52.458;9.998;2023-01-01T00:01:36;16.60;99.90
16635;DHT22;8431;52.458;9.998;2023-01-01T00:04:08;16.50;99.90
16635;DHT22;8431;52.458;9.998;2023-01-01T00:06:36;16.60;99.90
16635;DHT22;8431;52.458;9.998;2023-01-01T00:09:03;16.60;99.90
16635;DHT22;8431;52.458;9.998;2023-01-01T00:11:48;16.50;99.90
16635;DHT22;8431;52.458;9.998;2023-01-01T00:14:15;16.30;99.90
16635;DHT22;8431;52.458;9.998;2023-01-01T00:16:42;16.30;99.90
16635;DHT22;8431;52.458;9.998;2023-01-01T00:19:10;16.20;99.90
16635;DHT22;8431;52.458;9.998;2023-01-01T00:21:38;16.40;99.90
16635;DHT22;8431;52.458;9.998;2023-01-01T00:24:06;16.40;99.90
16635;DHT22;8431;52.458;9.998;2023-01-01T00:26:33;16.40;99.90
16635;DHT22;8431;52.458;9.998;2023-01-01T00:29:00;16.50;99.90
16635;DHT22;8431;52.458;9.998;2023-01-01T00:31:27;16.70;99.90
16635;DHT22;8431;52.458;9.998;2023-01-01T00:33:55;16.70;99.90
16635;DHT22;8431;52.458;9.998;2023-01-01T00:36:26;16.70;99.90
16635;DHT22;8431;52.458;9.998;2023-01-01T00:38:54;16.60;99.90
16635;DHT22;8431;52.458;9.998;2023-01-01T00:41:21;16.70;99.90
16635;DHT22;8431;52.458;9.998;2023-01-01T00:43:48;16.80;99.90
16635;DHT22;8431;52.458;9.998;2023-01-01T00:46:15;16.80;99.90
16635;DHT22;8431;52.458;9.998;2023-01-01T00:48:42;16.70;99.90
16635;DHT22;8431;52.458;9.998;2023-01-01T00:51:11;16.80;99.90
16635;DHT22;8431;52.458;9.998;2023-01-01T00:53:39;16.80;99.90
16635;DHT22;8431;52.458;9.998;2023-01-01T00:56:06;16.90;99.90
16635;DHT22;8431;52.458;9.998;2023-01-01T00:58:34;16.80;99.90
16635;DHT22;8431;52.458;9.998;2023-01-01T01:01:01;16.80;99.90
16635;DHT22;8431;52.458;9.998;2023-01-01T01:03:28;16.90;99.90
16635;DHT22;8431;52.458;9.998;2023-01-01T01:05:56;16.80;99.90
16635;DHT22;8431;52.458;9.998;2023-01-01T01:08:23;16.70;99.90
16635;DHT22;8431;52.458;9.998;2023-01-01T01:10:52;16.80;99.90
16635;DHT22;8431;52.458;9.998;2023-01-01T01:13:19;16.90;99.90
16635;DHT22;8431;52.458;9.998;2023-01-01T01:15:46;16.90;99.90
16635;DHT22;8431;52.458;9.998;2023-01-01T01:18:13;16.90;99.90
16635;DHT22;8431;52.458;9.998;2023-01-01T01:20:48;16.70;99.90
16635;DHT22;8431;52.458;9.998;2023-01-01T01:23:16;16.70;99.90
16635;DHT22;8431;52.458;9.998;2023-01-01T01:25:43;16.80;99.90
16635;DHT22;8431;52.458;9.998;2023-01-01T01:28:12;16.90;99.90
16635;DHT22;8431;52.458;9.998;2023-01-01T01:30:39;16.80;99.90
16635;DHT22;8431;52.458;9.998;2023-01-01T01:33:06;16.80;99.90
16635;DHT22;8431;52.458;9.998;2023-01-01T01:35:34;16.70;99.90
16635;DHT22;8431;52.458;9.998;2023-01-01T01:38:01;16.70;99.90
16635;DHT22;8431;52.458;9.998;2023-01-01T01:40:28;16.80;99.90
16635;DHT22;8431;52.458;9.998;2023-01-01T01:42:55;16.80;99.90
16635;DHT22;8431;52.458;9.998;2023-01-01T01:45:23;17.10;99.90
16635;DHT22;8431;52.458;9.998;2023-01-01T01:47:52;17.10;99.90
16635;DHT22;8431;52.458;9.998;2023-01-01T01:50:23;17.00;99.90
16635;DHT22;8431;52.458;9.998;2023-01-01T01:53:03;16.80;99.90
16635;DHT22;8431;52.458;9.998;2023-01-01T01:55:34;16.80;99.90
16635;DHT22;8431;52.458;9.998;2023-01-01T01:58:03;16.80;99.90
16635;DHT22;8431;52.458;9.998;2023-01-01T02:00:32;16.80;99.90
16635;DHT22;8431;52.458;9.998;2023-01-01T02:03:03;16.80;99.90
16635;DHT22;8431;52.458;9.998;2023-01-01T02:05:31;16.80;99.90
16635;DHT22;8431;52.458;9.998;2023-01-01T02:07:59;16.80;99.90
16635;DHT22;8431;52.458;9.998;2023-01-01T02:10:28;16.70;99.90
16635;DHT22;8431;52.458;9.998;2023-01-01T02:12:55;16.80;99.90
16635;DHT22;8431;52.458;9.998;2023-01-01T02:15:24;16.70;99.90
16635;DHT22;8431;52.458;9.998;2023-01-01T02:18:00;16.50;99.90
16635;DHT22;8431;52.458;9.998;2023-01-01T02:20:35;16.60;99.90
16635;DHT22;8431;52.458;9.998;2023-01-01T02:23:48;16.50;99.90
16635;DHT22;8431;52.458;9.998;2023-01-01T02:26:34;16.60;99.90
16635;DHT22;8431;52.458;9.998;2023-01-01T02:29:16;16.60;99.90
16635;DHT22;8431;52.458;9.998;2023-01-01T02:31:48;16.60;99.90
16635;DHT22;8431;52.458;9.998;2023-01-01T02:34:20;16.60;99.90
16635;DHT22;8431;52.458;9.998;2023-01-01T02:36:52;16.60;99.90
16635;DHT22;8431;52.458;9.998;2023-01-01T02:39:21;16.70;99.90
16635;DHT22;8431;52.458;9.998;2023-01-01T02:41:53;16.60;99.90
16635;DHT22;8431;52.458;9.998;2023-01-01T02:44:26;16.60;99.90
16635;DHT22;8431;52.458;9.998;2023-01-01T02:46:54;16.50;99.90
16635;DHT22;8431;52.458;9.998;2023-01-01T02:49:20;16.50;99.90
16635;DHT22;8431;52.458;9.998;2023-01-01T02:51:59;16.60;99.90
16635;DHT22;8431;52.458;9.998;2023-01-01T02:54:33;16.50;99.90
16635;DHT22;8431;52.458;9.998;2023-01-01T02:57:07;16.50;99.90
16635;DHT22;8431;52.458;9.998;2023-01-01T02:59:46;16.40;99.90
16635;DHT22;8431;52.458;9.998;2023-01-01T03:02:39;16.40;99.90
16635;DHT22;8431;52.458;9.998;2023-01-01T03:05:11;16.30;99.90
16635;DHT22;8431;52.458;9.998;2023-01-01T03:07:49;16.40;99.90
16635;DHT22;8431;52.458;9.998;2023-01-01T03:10:29;16.30;99.90
16635;DHT22;8431;52.458;9.998;2023-01-01T03:13:01;16.20;99.90
16635;DHT22;8431;52.458;9.998;2023-01-01T03:15:37;16.30;99.90
16635;DHT22;8431;52.458;9.998;2023-01-01T03:18:10;16.20;99.90
16635;DHT22;8431;52.458;9.998;2023-01-01T03:20:41;16.30;99.90
16635;DHT22;8431;52.458;9.998;2023-01-01T03:23:12;16.50;99.90
16635;DHT22;8431;52.458;9.998;2023-01-01T03:25:45;16.50;99.90
16635;DHT22;8431;52.458;9.998;2023-01-01T03:28:15;16.50;99.90
16635;DHT22;8431;52.458;9.998;2023-01-01T03:30:46;16.40;99.90
16635;DHT22;8431;52.458;9.998;2023-01-01T03:33:17;16.30;99.90
16635;DHT22;8431;52.458;9.998;2023-01-01T03:35:49;16.20;99.90
16635;DHT22;8431;52.458;9.998;2023-01-01T03:38:20;16.30;99.90
16635;DHT22;8431;52.458;9.998;2023-01-01T03:40:50;16.30;99.90
16635;DHT22;8431;52.458;9.998;2023-01-01T03:43:21;16.20;99.90
16635;DHT22;8431;52.458;9.998;2023-01-01T03:45:55;16.30;99.90
16635;DHT22;8431;52.458;9.998;2023-01-01T03:48:22;16.30;99.90
16635;DHT22;8431;52.458;9.998;2023-01-01T03:50:57;16.20;99.90
16635;DHT22;8431;52.458;9.998;2023-01-01T03:53:35;16.10;99.90
16635;DHT22;8431;52.458;9.998;2023-01-01T03:56:11;16.20;99.90
16635;DHT22;8431;52.458;9.998;2023-01-01T03:58:43;16.00;99.90
16635;DHT22;8431;52.458;9.998;2023-01-01T04:01:15;16.00;99.90
16635;DHT22;8431;52.458;9.998;2023-01-01T04:03:44;16.20;99.90
16635;DHT22;8431;52.458;9.998;2023-01-01T04:06:11;16.10;99.90
16635;DHT22;8431;52.458;9.998;2023-01-01T04:08:38;16.10;99.90
16635;DHT22;8431;52.458;9.998;2023-01-01T04:11:08;16.00;99.90
16635;DHT22;8431;52.458;9.998;2023-01-01T04:13:49;16.10;99.90
16635;DHT22;8431;52.458;9.998;2023-01-01T04:16:18;16.20;99.90
16635;DHT22;8431;52.458;9.998;2023-01-01T04:18:45;16.20;99.90
16635;DHT22;8431;52.458;9.998;2023-01-01T04:21:12;16.20;99.90
16635;DHT22;8431;52.458;9.998;2023-01-01T04:23:39;16.10;99.90
16635;DHT22;8431;52.458;9.998;2023-01-01T04:26:11;16.00;99.90
16635;DHT22;8431;52.458;9.998;2023-01-01T04:28:38;16.00;99.90
16635;DHT22;8431;52.458;9.998;2023-01-01T04:31:06;16.10;99.90
16635;DHT22;8431;52.458;9.998;2023-01-01T04:33:35;16.00;99.90
16635;DHT22;8431;52.458;9.998;2023-01-01T04:36:03;16.10;99.90
16635;DHT22;8431;52.458;9.998;2023-01-01T04:38:32;16.00;99.90
16635;DHT22;8431;52.458;9.998;2023-01-01T04:40:59;15.90;99.90
16635;DHT22;8431;52.458;9.998;2023-01-01T04:43:27;15.80;99.90
16635;DHT22;8431;52.458;9.998;2023-01-01T04:45:55;15.80;99.90
16635;DHT22;8431;52.458;9.998;2023-01-01T04:48:23;15.80;99.90
16635;DHT22;8431;52.458;9.998;2023-01-01T04:50:56;15.90;99.90
16635;DHT22;8431;52.458;9.998;2023-01-01T04:53:23;15.80;99.90
16635;DHT22;8431;52.458;9.998;2023-01-01T04:55:50;15.80;99.90
16635;DHT22;8431;52.458;9.998;2023-01-01T04:58:17;15.80;99.90
16635;DHT22;8431;52.458;9.998;2023-01-01T05:00:48;15.80;99.90
16635;DHT22;8431;52.458;9.998;2023-01-01T05:03:15;15.80;99.90
16635;DHT22;8431;52.458;9.998;2023-01-01T05:05:43;15.80;99.90
16635;DHT22;8431;52.458;9.998;2023-01-01T05:08:11;15.80;99.90
16635;DHT22;8431;52.458;9.998;2023-01-01T05:10:38;15.70;99.90
16635;DHT22;8431;52.458;9.998;2023-01-01T05:13:06;15.60;99.90
16635;DHT22;8431;52.458;9.998;2023-01-01T05:15:35;15.50;99.90
16635;DHT22;8431;52.458;9.998;2023-01-01T05:18:03;15.80;99.90
16635;DHT22;8431;52.458;9.998;2023-01-01T05:20:30;15.70;99.90
16635;DHT22;8431;52.458;9.998;2023-01-01T05:22:57;15.60;99.90
16635;DHT22;8431;52.458;9.998;2023-01-01T05:25:25;15.50;99.90
16635;DHT22;8431;52.458;9.998;2023-01-01T05:27:53;15.50;99.90
16635;DHT22;8431;52.458;9.998;2023-01-01T05:30:20;15.50;99.90
16635;DHT22;8431;52.458;9.998;2023-01-01T05:32:47;15.60;99.90
16635;DHT22;8431;52.458;9.998;2023-01-01T05:35:14;15.70;99.90
16635;DHT22;8431;52.458;9.998;2023-01-01T05:37:41;15.70;99.90
16635;DHT22;8431;52.458;9.998;2023-01-01T05:40:09;15.60;99.90
16635;DHT22;8431;52.458;9.998;2023-01-01T05:42:38;15.50;99.90
16635;DHT22;8431;52.458;9.998;2023-01-01T05:45:06;15.60;99.90
16635;DHT22;8431;52.458;9.998;2023-01-01T05:47:33;15.60;99.90
16635;DHT22;8431;52.458;9.998;2023-01-01T05:50:00;15.60;99.90
16635;DHT22;8431;52.458;9.998;2023-01-01T05:52:27;15.60;99.90
16635;DHT22;8431;52.458;9.998;2023-01-01T05:54:54;15.60;99.90
16635;DHT22;8431;52.458;9.998;2023-01-01T05:57:23;15.60;99.90
16635;DHT22;8431;52.458;9.998;2023-01-01T05:59:51;15.60;99.90
16635;DHT22;8431;52.458;9.998;2023-01-01T06:02:18;15.60;99.90
16635;DHT22;8431;52.458;9.998;2023-01-01T06:04:46;15.60;99.90
16635;DHT22;8431;52.458;9.998;2023-01-01T06:07:13;15.60;99.90
16635;DHT22;8431;52.458;9.998;2023-01-01T06:09:40;15.60;99.90
16635;DHT22;8431;52.458;9.998;2023-01-01T06:12:07;15.60;99.90
16635;DHT22;8431;52.458;9.998;2023-01-01T06:14:34;15.60;99.90
16635;DHT22;8431;52.458;9.998;2023-01-01T06:17:02;15.60;99.90
16635;DHT22;8431;52.458;9.998;2023-01-01T06:19:29;15.50;99.90
16635;DHT22;8431;52.458;9.998;2023-01-01T06:21:56;15.60;99.90
16635;DHT22;8431;52.458;9.998;2023-01-01T06:24:23;15.70;99.90
16635;DHT22;8431;52.458;9.998;2023-01-01T06:26:50;15.70;99.90
16635;DHT22;8431;52.458;9.998;2023-01-01T06:29:17;15.70;99.90
16635;DHT22;8431;52.458;9.998;2023-01-01T06:31:44;15.50;99.90
16635;DHT22;8431;52.458;9.998;2023-01-01T06:34:13;15.60;99.90
16635;DHT22;8431;52.458;9.998;2023-01-01T06:36:40;15.50;99.90
16635;DHT22;8431;52.458;9.998;2023-01-01T06:39:07;15.50;99.90
16635;DHT22;8431;52.458;9.998;2023-01-01T06:41:34;15.40;99.90
16635;DHT22;8431;52.458;9.998;2023-01-01T06:44:02;15.30;99.90
16635;DHT22;8431;52.458;9.998;2023-01-01T06:46:31;15.30;99.90
16635;DHT22;8431;52.458;9.998;2023-01-01T06:49:01;15.30;99.90
16635;DHT22;8431;52.458;9.998;2023-01-01T06:51:31;15.30;99.90
16635;DHT22;8431;52.458;9.998;2023-01-01T06:53:59;15.30;99.90
16635;DHT22;8431;52.458;9.998;2023-01-01T06:56:27;15.20;99.90
16635;DHT22;8431;52.458;9.998;2023-01-01T06:58:55;15.20;99.90
16635;DHT22;8431;52.458;9.998;2023-01-01T07:01:24;15.30;99.90
16635;DHT22;8431;52.458;9.998;2023-01-01T07:03:52;15.20;99.90
16635;DHT22;8431;52.458;9.998;2023-01-01T07:06:20;15.20;99.90
16635;DHT22;8431;52.458;9.998;2023-01-01T07:08:48;15.30;99.90
16635;DHT22;8431;52.458;9.998;2023-01-01T07:11:16;15.20;99.90
16635;DHT22;8431;52.458;9.998;2023-01-01T07:13:43;15.00;99.90
16635;DHT22;8431;52.458;9.998;2023-01-01T07:16:10;15.00;99.90
16635;DHT22;8431;52.458;9.998;2023-01-01T07:18:37;14.90;99.90
16635;DHT22;8431;52.458;9.998;2023-01-01T07:21:06;14.80;99.90
16635;DHT22;8431;52.458;9.998;2023-01-01T07:23:34;14.80;99.90
16635;DHT22;8431;52.458;9.998;2023-01-01T07:26:03;14.80;99.90
16635;DHT22;8431;52.458;9.998;2023-01-01T07:28:30;14.90;99.90
16635;DHT22;8431;52.458;9.998;2023-01-01T07:30:57;14.90;99.90
16635;DHT22;8431;52.458;9.998;2023-01-01T07:33:24;14.90;99.90
16635;DHT22;8431;52.458;9.998;2023-01-01T07:35:51;14.90;99.90
16635;DHT22;8431;52.458;9.998;2023-01-01T07:38:18;15.00;99.90
16635;DHT22;8431;52.458;9.998;2023-01-01T07:40:45;15.00;99.90
16635;DHT22;8431;52.458;9.998;2023-01-01T07:43:13;14.80;99.90
16635;DHT22;8431;52.458;9.998;2023-01-01T07:45:40;15.00;99.90
16635;DHT22;8431;52.458;9.998;2023-01-01T07:48:09;15.10;99.90
16635;DHT22;8431;52.458;9.998;2023-01-01T07:50:39;15.20;99.90
16635;DHT22;8431;52.458;9.998;2023-01-01T07:53:06;15.20;99.90
16635;DHT22;8431;52.458;9.998;2023-01-01T07:55:33;15.20;99.90
16635;DHT22;8431;52.458;9.998;2023-01-01T07:58:00;15.20;99.90
16635;DHT22;8431;52.458;9.998;2023-01-01T08:00:29;15.20;99.90
16635;DHT22;8431;52.458;9.998;2023-01-01T08:02:56;15.20;99.90
16635;DHT22;8431;52.458;9.998;2023-01-01T08:05:24;15.20;99.90
16635;DHT22;8431;52.458;9.998;2023-01-01T08:07:51;15.20;99.90
16635;DHT22;8431;52.458;9.998;2023-01-01T08:10:18;15.20;99.90
16635;DHT22;8431;52.458;9.998;2023-01-01T08:12:46;15.20;99.90
16635;DHT22;8431;52.458;9.998;2023-01-01T08:15:14;15.20;99.90
16635;DHT22;8431;52.458;9.998;2023-01-01T08:17:43;15.30;99.90
16635;DHT22;8431;52.458;9.998;2023-01-01T08:20:10;15.30;99.90
16635;DHT22;8431;52.458;9.998;2023-01-01T08:22:37;15.30;99.90
16635;DHT22;8431;52.458;9.998;2023-01-01T08:25:05;15.30;99.90
16635;DHT22;8431;52.458;9.998;2023-01-01T08:27:32;15.30;99.90
16635;DHT22;8431;52.458;9.998;2023-01-01T08:29:59;15.30;99.90
16635;DHT22;8431;52.458;9.998;2023-01-01T08:32:26;15.20;99.90
16635;DHT22;8431;52.458;9.998;2023-01-01T08:34:55;15.20;99.90
16635;DHT22;8431;52.458;9.998;2023-01-01T08:37:22;15.20;99.90
16635;DHT22;8431;52.458;9.998;2023-01-01T08:39:50;15.10;99.90
16635;DHT22;8431;52.458;9.998;2023-01-01T08:42:17;15.20;99.90
16635;DHT22;8431;52.458;9.998;2023-01-01T08:44:44;15.20;99.90
16635;DHT22;8431;52.458;9.998;2023-01-01T08:47:19;15.10;99.90
16635;DHT22;8431;52.458;9.998;2023-01-01T08:49:47;15.20;99.90
16635;DHT22;8431;52.458;9.998;2023-01-01T08:52:16;15.20;99.90
16635;DHT22;8431;52.458;9.998;2023-01-01T08:54:43;15.20;99.90
16635;DHT22;8431;52.458;9.998;2023-01-01T08:57:11;15.20;99.90
16635;DHT22;8431;52.458;9.998;2023-01-01T08:59:38;15.20;99.90
16635;DHT22;8431;52.458;9.998;2023-01-01T09:02:05;15.20;99.90
16635;DHT22;8431;52.458;9.998;2023-01-01T09:04:33;15.30;99.90
16635;DHT22;8431;52.458;9.998;2023-01-01T09:07:00;15.10;99.90
16635;DHT22;8431;52.458;9.998;2023-01-01T09:09:28;15.20;99.90
16635;DHT22;8431;52.458;9.998;2023-01-01T09:11:56;15.10;99.90
16635;DHT22;8431;52.458;9.998;2023-01-01T09:14:28;15.20;99.90
16635;DHT22;8431;52.458;9.998;2023-01-01T09:16:59;15.10;99.90
16635;DHT22;8431;52.458;9.998;2023-01-01T09:19:27;15.20;99.90
16635;DHT22;8431;52.458;9.998;2023-01-01T09:21:54;15.20;99.90
16635;DHT22;8431;52.458;9.998;2023-01-01T09:24:22;15.20;99.90
16635;DHT22;8431;52.458;9.998;2023-01-01T09:27:01;15.20;99.90
16635;DHT22;8431;52.458;9.998;2023-01-01T09:29:30;15.20;99.90
16635;DHT22;8431;52.458;9.998;2023-01-01T09:31:58;15.10;99.90
16635;DHT22;8431;52.458;9.998;2023-01-01T09:34:25;15.00;99.90
16635;DHT22;8431;52.458;9.998;2023-01-01T09:36:52;14.80;99.90
16635;DHT22;8431;52.458;9.998;2023-01-01T09:39:19;14.80;99.90
16635;DHT22;8431;52.458;9.998;2023-01-01T09:42:01;14.80;99.90
16635;DHT22;8431;52.458;9.998;2023-01-01T09:44:49;14.80;99.90
16635;DHT22;8431;52.458;9.998;2023-01-01T09:47:23;14.90;99.90
16635;DHT22;8431;52.458;9.998;2023-01-01T09:49:53;14.90;99.90
16635;DHT22;8431;52.458;9.998;2023-01-01T09:52:32;14.80;99.90
16635;DHT22;8431;52.458;9.998;2023-01-01T09:55:15;14.60;99.90
16635;DHT22;8431;52.458;9.998;2023-01-01T09:57:47;14.30;99.90
16635;DHT22;8431;52.458;9.998;2023-01-01T10:00:16;14.00;99.90
16635;DHT22;8431;52.458;9.998;2023-01-01T10:03:09;13.90;99.90
16635;DHT22;8431;52.458;9.998;2023-01-01T10:05:48;13.90;99.90
16635;DHT22;8431;52.458;9.998;2023-01-01T10:08:23;13.90;99.90
16635;DHT22;8431;52.458;9.998;2023-01-01T10:10:57;13.90;99.90
16635;DHT22;8431;52.458;9.998;2023-01-01T10:13:33;13.90;99.90
16635;DHT22;8431;52.458;9.998;2023-01-01T10:16:10;13.80;99.90
16635;DHT22;8431;52.458;9.998;2023-01-01T10:18:39;13.80;99.90
16635;DHT22;8431;52.458;9.998;2023-01-01T10:21:12;13.70;99.90
16635;DHT22;8431;52.458;9.998;2023-01-01T10:23:43;13.70;99.90
16635;DHT22;8431;52.458;9.998;2023-01-01T10:26:15;13.70;99.90
16635;DHT22;8431;52.458;9.998;2023-01-01T10:29:15;13.60;99.90
16635;DHT22;8431;52.458;9.998;2023-01-01T10:32:20;13.50;99.90
16635;DHT22;8431;52.458;9.998;2023-01-01T10:34:48;13.30;99.90
16635;DHT22;8431;52.458;9.998;2023-01-01T10:37:18;13.20;99.90
16635;DHT22;8431;52.458;9.998;2023-01-01T10:39:46;13.00;99.90
16635;DHT22;8431;52.458;9.998;2023-01-01T10:42:15;12.70;99.90
16635;DHT22;8431;52.458;9.998;2023-01-01T10:44:44;12.20;99.90
16635;DHT22;8431;52.458;9.998;2023-01-01T10:47:24;11.50;99.90
16635;DHT22;8431;52.458;9.998;2023-01-01T10:49:56;11.10;99.90
16635;DHT22;8431;52.458;9.998;2023-01-01T10:52:27;10.90;99.90
16635;DHT22;8431;52.458;9.998;2023-01-01T10:54:56;10.80;99.90
16635;DHT22;8431;52.458;9.998;2023-01-01T10:57:31;10.80;99.90
16635;DHT22;8431;52.458;9.998;2023-01-01T11:00:19;10.80;99.90
16635;DHT22;8431;52.458;9.998;2023-01-01T11:02:47;10.80;99.90
16635;DHT22;8431;52.458;9.998;2023-01-01T11:05:17;10.90;99.90
16635;DHT22;8431;52.458;9.998;2023-01-01T11:07:48;11.00;99.90
16635;DHT22;8431;52.458;9.998;2023-01-01T11:10:18;11.00;99.90
16635;DHT22;8431;52.458;9.998;2023-01-01T11:12:47;11.10;99.90
16635;DHT22;8431;52.458;9.998;2023-01-01T11:15:36;11.10;99.90
16635;DHT22;8431;52.458;9.998;2023-01-01T11:18:13;11.20;99.90
16635;DHT22;8431;52.458;9.998;2023-01-01T11:20:40;11.30;99.90
16635;DHT22;8431;52.458;9.998;2023-01-01T11:23:27;11.40;99.90
16635;DHT22;8431;52.458;9.998;2023-01-01T11:26:00;11.40;99.90
16635;DHT22;8431;52.458;9.998;2023-01-01T11:28:28;11.50;99.90
16635;DHT22;8431;52.458;9.998;2023-01-01T11:31:16;11.50;99.90
16635;DHT22;8431;52.458;9.998;2023-01-01T11:33:45;11.60;99.90
16635;DHT22;8431;52.458;9.998;2023-01-01T11:36:20;11.70;99.90
16635;DHT22;8431;52.458;9.998;2023-01-01T11:38:49;11.80;99.90
16635;DHT22;8431;52.458;9.998;2023-01-01T11:41:17;11.90;99.90
16635;DHT22;8431;52.458;9.998;2023-01-01T11:43:45;11.90;99.90
16635;DHT22;8431;52.458;9.998;2023-01-01T11:46:22;12.00;99.90
16635;DHT22;8431;52.458;9.998;2023-01-01T11:48:49;12.00;99.90
16635;DHT22;8431;52.458;9.998;2023-01-01T11:51:28;12.10;99.90
16635;DHT22;8431;52.458;9.998;2023-01-01T11:54:11;12.10;99.90
16635;DHT22;8431;52.458;9.998;2023-01-01T11:56:47;12.20;99.90
16635;DHT22;8431;52.458;9.998;2023-01-01T11:59:17;12.20;99.90
16635;DHT22;8431;52.458;9.998;2023-01-01T12:01:52;12.20;99.90
16635;DHT22;8431;52.458;9.998;2023-01-01T12:04:25;12.20;99.90
16635;DHT22;8431;52.458;9.998;2023-01-01T12:06:57;12.10;99.90
16635;DHT22;8431;52.458;9.998;2023-01-01T12:09:31;12.10;99.90
16635;DHT22;8431;52.458;9.998;2023-01-01T12:12:06;12.10;99.90
16635;DHT22;8431;52.458;9.998;2023-01-01T12:14:45;12.10;99.90
16635;DHT22;8431;52.458;9.998;2023-01-01T12:17:26;12.20;99.90
16635;DHT22;8431;52.458;9.998;2023-01-01T12:20:01;12.10;99.90
16635;DHT22;8431;52.458;9.998;2023-01-01T12:22:30;12.10;99.90
16635;DHT22;8431;52.458;9.998;2023-01-01T12:24:58;12.10;99.90
16635;DHT22;8431;52.458;9.998;2023-01-01T12:27:49;12.00;99.90
16635;DHT22;8431;52.458;9.998;2023-01-01T12:30:23;12.00;99.90
16635;DHT22;8431;52.458;9.998;2023-01-01T12:33:17;12.00;99.90
16635;DHT22;8431;52.458;9.998;2023-01-01T12:36:02;12.00;99.90
16635;DHT22;8431;52.458;9.998;2023-01-01T12:38:56;11.90;99.90
16635;DHT22;8431;52.458;9.998;2023-01-01T12:41:32;11.80;99.90
16635;DHT22;8431;52.458;9.998;2023-01-01T12:44:10;11.60;99.90
16635;DHT22;8431;52.458;9.998;2023-01-01T12:46:48;11.60;99.90
16635;DHT22;8431;52.458;9.998;2023-01-01T12:49:35;11.60;99.90
16635;DHT22;8431;52.458;9.998;2023-01-01T12:52:16;11.50;99.90
16635;DHT22;8431;52.458;9.998;2023-01-01T12:57:54;11.40;99.90
16635;DHT22;8431;52.458;9.998;2023-01-01T13:00:23;11.30;99.90
16635;DHT22;8431;52.458;9.998;2023-01-01T13:02:55;11.20;99.90
16635;DHT22;8431;52.458;9.998;2023-01-01T13:05:29;11.20;99.90
16635;DHT22;8431;52.458;9.998;2023-01-01T13:08:03;11.20;99.90
16635;DHT22;8431;52.458;9.998;2023-01-01T13:10:32;11.30;99.90
16635;DHT22;8431;52.458;9.998;2023-01-01T13:13:01;11.30;99.90
16635;DHT22;8431;52.458;9.998;2023-01-01T13:15:55;11.20;99.90
16635;DHT22;8431;52.458;9.998;2023-01-01T13:18:27;11.20;99.90
16635;DHT22;8431;52.458;9.998;2023-01-01T13:21:00;11.20;99.90
16635;DHT22;8431;52.458;9.998;2023-01-01T13:23:44;11.30;99.90
16635;DHT22;8431;52.458;9.998;2023-01-01T13:26:37;11.40;99.90
16635;DHT22;8431;52.458;9.998;2023-01-01T13:32:11;11.70;99.90
16635;DHT22;8431;52.458;9.998;2023-01-01T13:35:14;11.70;99.90
16635;DHT22;8431;52.458;9.998;2023-01-01T13:37:47;11.70;99.90
16635;DHT22;8431;52.458;9.998;2023-01-01T13:46:14;11.60;99.90
16635;DHT22;8431;52.458;9.998;2023-01-01T13:49:01;11.60;99.90
16635;DHT22;8431;52.458;9.998;2023-01-01T13:51:56;11.60;99.90
16635;DHT22;8431;52.458;9.998;2023-01-01T13:54:55;11.60;99.90
16635;DHT22;8431;52.458;9.998;2023-01-01T13:57:42;11.50;99.90
16635;DHT22;8431;52.458;9.998;2023-01-01T14:00:18;11.40;99.90
16635;DHT22;8431;52.458;9.998;2023-01-01T14:02:52;11.30;99.90
16635;DHT22;8431;52.458;9.998;2023-01-01T14:05:40;11.30;99.90
16635;DHT22;8431;52.458;9.998;2023-01-01T14:08:26;11.30;99.90
16635;DHT22;8431;52.458;9.998;2023-01-01T14:10:56;11.20;99.90
16635;DHT22;8431;52.458;9.998;2023-01-01T14:13:27;11.20;99.90
16635;DHT22;8431;52.458;9.998;2023-01-01T14:15:56;11.10;99.90
16635;DHT22;8431;52.458;9.998;2023-01-01T14:18:33;11.10;99.90
16635;DHT22;8431;52.458;9.998;2023-01-01T14:21:07;11.00;99.90
16635;DHT22;8431;52.458;9.998;2023-01-01T14:23:39;11.00;99.90
16635;DHT22;8431;52.458;9.998;2023-01-01T14:26:31;11.00;99.90
16635;DHT22;8431;52.458;9.998;2023-01-01T14:29:04;11.00;99.90
16635;DHT22;8431;52.458;9.998;2023-01-01T14:31:34;11.00;99.90
16635;DHT22;8431;52.458;9.998;2023-01-01T14:34:12;10.80;99.90
16635;DHT22;8431;52.458;9.998;2023-01-01T14:37:00;10.80;99.90
16635;DHT22;8431;52.458;9.998;2023-01-01T14:39:33;10.70;99.90
16635;DHT22;8431;52.458;9.998;2023-01-01T14:42:05;10.50;99.90
16635;DHT22;8431;52.458;9.998;2023-01-01T14:44:56;10.40;99.90
16635;DHT22;8431;52.458;9.998;2023-01-01T14:47:25;10.50;99.90
16635;DHT22;8431;52.458;9.998;2023-01-01T14:49:54;10.50;99.90
16635;DHT22;8431;52.458;9.998;2023-01-01T14:52:24;10.50;99.90
16635;DHT22;8431;52.458;9.998;2023-01-01T14:54:53;10.40;99.90
16635;DHT22;8431;52.458;9.998;2023-01-01T14:57:26;10.40;99.90
16635;DHT22;8431;52.458;9.998;2023-01-01T14:59:54;10.30;99.90
16635;DHT22;8431;52.458;9.998;2023-01-01T15:02:23;10.30;99.90
16635;DHT22;8431;52.458;9.998;2023-01-01T15:04:51;10.20;99.90
16635;DHT22;8431;52.458;9.998;2023-01-01T15:07:20;10.10;99.90
16635;DHT22;8431;52.458;9.998;2023-01-01T15:09:47;10.00;99.90
16635;DHT22;8431;52.458;9.998;2023-01-01T15:12:49;10.00;99.90
16635;DHT22;8431;52.458;9.998;2023-01-01T15:15:39;9.90;99.90
16635;DHT22;8431;52.458;9.998;2023-01-01T15:18:36;9.90;99.90
16635;DHT22;8431;52.458;9.998;2023-01-01T15:21:06;9.80;99.90
16635;DHT22;8431;52.458;9.998;2023-01-01T15:23:33;9.70;99.90
16635;DHT22;8431;52.458;9.998;2023-01-01T15:34:37;9.70;99.90
16635;DHT22;8431;52.458;9.998;2023-01-01T15:37:09;9.60;99.90
16635;DHT22;8431;52.458;9.998;2023-01-01T15:39:45;9.60;99.90
16635;DHT22;8431;52.458;9.998;2023-01-01T15:42:33;9.60;99.90
16635;DHT22;8431;52.458;9.998;2023-01-01T15:45:16;9.60;99.90
16635;DHT22;8431;52.458;9.998;2023-01-01T15:47:54;9.50;99.90
16635;DHT22;8431;52.458;9.998;2023-01-01T15:50:24;9.40;99.90
16635;DHT22;8431;52.458;9.998;2023-01-01T15:52:53;9.30;99.90
16635;DHT22;8431;52.458;9.998;2023-01-01T15:55:21;9.30;99.90
16635;DHT22;8431;52.458;9.998;2023-01-01T15:57:51;9.20;99.90
16635;DHT22;8431;52.458;9.998;2023-01-01T16:00:20;9.20;99.90
16635;DHT22;8431;52.458;9.998;2023-01-01T16:02:52;9.20;99.90
16635;DHT22;8431;52.458;9.998;2023-01-01T16:05:27;9.20;99.90
16635;DHT22;8431;52.458;9.998;2023-01-01T16:08:04;9.10;99.90
16635;DHT22;8431;52.458;9.998;2023-01-01T16:10:32;9.10;99.90
16635;DHT22;8431;52.458;9.998;2023-01-01T16:12:59;9.10;99.90
16635;DHT22;8431;52.458;9.998;2023-01-01T16:15:26;9.00;99.90
16635;DHT22;8431;52.458;9.998;2023-01-01T16:17:53;9.00;99.90
16635;DHT22;8431;52.458;9.998;2023-01-01T16:20:25;8.90;99.90
16635;DHT22;8431;52.458;9.998;2023-01-01T16:22:54;8.90;99.90
16635;DHT22;8431;52.458;9.998;2023-01-01T16:25:34;8.80;99.90
16635;DHT22;8431;52.458;9.998;2023-01-01T16:28:04;8.70;99.90
16635;DHT22;8431;52.458;9.998;2023-01-01T16:30:31;8.60;99.90
16635;DHT22;8431;52.458;9.998;2023-01-01T16:32:58;8.70;99.90
16635;DHT22;8431;52.458;9.998;2023-01-01T16:35:26;8.60;99.90
16635;DHT22;8431;52.458;9.998;2023-01-01T16:37:54;8.60;99.90